Port Lions, Alaska
Current Conditions -  °F | °C
As of 9:53 PM on Saturday 20 Dec 2014 (Local Time) from PADQ Reporting Station
Scattered Clouds Scattered Clouds  
Wind Chill: 33°   Ceiling: Unl
Heat Index: 38°   Visibility: 10mi
Dew Point: 35°   Wind: 7mph
Humidity: 89%   Direction: 310°NW
Pressure: 28.89"   Gusts: NA
Location:  57.87°N, 152.88°W
Report Text: PADQ 210653Z 31006KT 10SM SCT035 03/02 A2889 RMK AO2 SLP783 T00330017
Loading
Personal Weather Stations






























Interactive Weather Map New forecast layout! Learn more

10-Day Weather Forecast

Advertisements
Track Severe Weather on mobile